createdAt,value
2022-08-24T00:01:25.207Z,22.23
2022-08-24T00:03:59.874Z,22.22
2022-08-24T00:06:32.006Z,22.26
2022-08-24T00:09:05.222Z,22.28
2022-08-24T00:11:36.345Z,22.29
2022-08-24T00:14:08.109Z,22.31
2022-08-24T00:16:39.798Z,22.31
2022-08-24T00:19:11.728Z,22.32
2022-08-24T00:21:42.734Z,22.32
2022-08-24T00:24:15.795Z,22.32
2022-08-24T00:26:47.166Z,22.32
2022-08-24T00:29:20.145Z,22.32
2022-08-24T00:31:52.434Z,22.31
2022-08-24T00:34:24.024Z,22.29
2022-08-24T00:36:55.273Z,22.27
2022-08-24T00:39:29.654Z,22.25
2022-08-24T00:42:06.584Z,22.22
2022-08-24T00:44:38.017Z,22.22
2022-08-24T00:47:23.065Z,22.19
2022-08-24T00:50:26.246Z,22.16
2022-08-24T00:53:20.803Z,22.12
2022-08-24T00:56:00.734Z,22.09
2022-08-24T00:58:36.346Z,22.13
2022-08-24T01:01:10.069Z,22.15
2022-08-24T01:03:41.271Z,22.16
2022-08-24T01:06:13.354Z,22.16
2022-08-24T01:08:45.014Z,22.10
2022-08-24T01:11:20.233Z,22.02
2022-08-24T01:14:05.645Z,21.99
2022-08-24T01:17:30.194Z,22.00
2022-08-24T01:20:05.955Z,22.01
2022-08-24T01:23:16.882Z,22.01
2022-08-24T01:25:49.747Z,22.02
2022-08-24T01:28:27.297Z,22.02
2022-08-24T01:30:59.277Z,22.04
2022-08-24T01:33:33.494Z,22.05
2022-08-24T01:36:22.354Z,22.06
2022-08-24T01:39:04.805Z,22.06
2022-08-24T01:41:36.186Z,22.04
2022-08-24T01:44:11.627Z,22.01
2022-08-24T01:46:54.494Z,22.00
2022-08-24T01:49:29.705Z,21.99
2022-08-24T01:52:13.710Z,21.99
2022-08-24T01:54:55.673Z,21.98
2022-08-24T01:57:35.385Z,21.98
2022-08-24T02:00:53.772Z,21.97
2022-08-24T02:03:35.893Z,21.96
2022-08-24T02:06:23.914Z,21.96
2022-08-24T02:08:56.135Z,21.93
2022-08-24T02:11:41.852Z,21.93
2022-08-24T02:14:17.114Z,21.92
2022-08-24T02:16:50.126Z,21.92
2022-08-24T02:19:39.793Z,21.89
2022-08-24T02:22:34.725Z,21.90
2022-08-24T02:25:19.383Z,21.90
2022-08-24T02:27:50.745Z,21.89
2022-08-24T02:30:37.724Z,21.90
2022-08-24T02:33:15.654Z,21.90
2022-08-24T02:35:53.865Z,21.90
2022-08-24T02:38:28.292Z,21.88
2022-08-24T02:40:59.965Z,21.89
2022-08-24T02:43:30.845Z,21.88
2022-08-24T02:46:06.512Z,21.86
2022-08-24T02:48:44.292Z,21.87
2022-08-24T02:51:26.754Z,21.87
2022-08-24T02:54:02.344Z,21.88
2022-08-24T02:56:33.792Z,21.88
2022-08-24T02:59:04.783Z,21.89
2022-08-24T03:01:35.601Z,21.88
2022-08-24T03:04:06.705Z,21.88
2022-08-24T03:06:38.263Z,21.90
2022-08-24T03:09:43.504Z,21.91
2022-08-24T03:12:20.734Z,21.90
2022-08-24T03:14:56.022Z,21.92
2022-08-24T03:17:31.825Z,21.93
2022-08-24T03:20:04.504Z,21.90
2022-08-24T03:22:35.404Z,21.90
2022-08-24T03:25:08.352Z,21.91
2022-08-24T03:27:41.172Z,21.91
2022-08-24T03:30:14.624Z,21.91
2022-08-24T03:32:45.347Z,21.92
2022-08-24T03:35:17.524Z,21.91
2022-08-24T03:37:48.293Z,21.90
2022-08-24T03:40:23.104Z,21.89
2022-08-24T03:42:57.825Z,21.90
2022-08-24T03:45:31.419Z,21.90
2022-08-24T03:48:02.288Z,21.89
2022-08-24T03:50:33.386Z,21.88
2022-08-24T03:53:05.785Z,21.88
2022-08-24T03:55:40.244Z,21.87
2022-08-24T03:58:11.641Z,21.85
2022-08-24T04:00:43.740Z,21.86
2022-08-24T04:03:16.462Z,21.85
2022-08-24T04:05:47.985Z,21.87
2022-08-24T04:08:18.714Z,21.86
2022-08-24T04:10:53.525Z,21.86
2022-08-24T04:13:30.563Z,21.85
2022-08-24T04:16:10.219Z,21.83
2022-08-24T04:18:42.642Z,21.83
2022-08-24T04:21:23.863Z,21.84
2022-08-24T04:23:55.989Z,21.84
2022-08-24T04:26:44.857Z,21.84
2022-08-24T04:29:19.837Z,21.84
2022-08-24T04:32:51.478Z,21.85
2022-08-24T04:47:43.592Z,22.38
2022-08-24T04:50:15.190Z,22.46
2022-08-24T04:52:47.144Z,22.41
2022-08-24T04:59:43.719Z,22.29
2022-08-24T05:02:57.141Z,22.22
2022-08-24T05:05:55.083Z,22.16
2022-08-24T05:08:25.965Z,22.13
2022-08-24T05:11:08.604Z,22.10
2022-08-24T05:13:50.720Z,22.10
2022-08-24T05:16:32.957Z,22.10
2022-08-24T05:19:17.787Z,22.09
2022-08-24T05:21:59.236Z,22.08
2022-08-24T05:24:30.508Z,22.06
2022-08-24T05:27:01.542Z,22.04
2022-08-24T05:29:35.151Z,22.02
2022-08-24T05:32:06.542Z,22.02
2022-08-24T05:34:37.219Z,22.00
2022-08-24T05:37:07.820Z,21.98
2022-08-24T05:40:06.890Z,21.97
2022-08-24T05:42:40.318Z,21.96
2022-08-24T05:45:12.386Z,21.97
2022-08-24T05:48:04.645Z,21.98
2022-08-24T05:50:58.472Z,21.97
2022-08-24T05:54:06.945Z,21.97
2022-08-24T06:01:28.222Z,21.98
2022-08-24T06:04:00.846Z,22.00
2022-08-24T06:06:32.295Z,22.03
2022-08-24T06:09:05.027Z,22.09
2022-08-24T06:11:39.790Z,22.12
2022-08-24T06:14:17.326Z,22.15
2022-08-24T06:17:00.672Z,22.20
2022-08-24T06:19:31.415Z,22.24
2022-08-24T06:22:02.761Z,22.28
2022-08-24T06:24:51.445Z,22.32
2022-08-24T06:27:24.192Z,22.31
2022-08-24T06:30:03.736Z,22.31
2022-08-24T06:33:12.791Z,22.32
2022-08-24T06:36:04.476Z,22.32
2022-08-24T06:38:40.886Z,22.39
2022-08-24T06:41:21.039Z,22.44
2022-08-24T06:43:52.176Z,22.53
2022-08-24T06:46:39.916Z,22.56
2022-08-24T06:49:11.403Z,22.61
2022-08-24T06:51:42.293Z,22.66
2022-08-24T06:54:13.750Z,22.76
2022-08-24T06:56:46.616Z,22.86
2022-08-24T06:59:17.193Z,22.95
2022-08-24T07:01:47.932Z,23.01
2022-08-24T07:04:19.422Z,23.07
2022-08-24T07:07:22.807Z,23.14
2022-08-24T07:10:02.576Z,23.18
2022-08-24T07:12:40.287Z,23.22
2022-08-24T07:15:16.711Z,23.27
2022-08-24T07:21:33.463Z,23.49
2022-08-24T07:24:32.774Z,23.57
2022-08-24T07:27:29.920Z,23.66
2022-08-24T07:30:27.810Z,23.75
2022-08-24T07:33:08.688Z,23.87
2022-08-24T07:36:22.108Z,23.97
2022-08-24T07:39:22.432Z,24.05
2022-08-24T07:42:14.952Z,24.12
2022-08-24T07:45:19.273Z,24.23
2022-08-24T07:48:21.686Z,24.31
2022-08-24T07:51:08.534Z,24.40
2022-08-24T07:53:59.687Z,24.56
2022-08-24T07:56:50.721Z,24.68
2022-08-24T07:59:50.470Z,24.82
2022-08-24T08:06:19.739Z,25.04
2022-08-24T08:12:31.694Z,25.27
2022-08-24T08:15:31.675Z,25.43
2022-08-24T08:18:13.895Z,25.55
2022-08-24T08:20:52.156Z,25.61
2022-08-24T08:23:45.428Z,25.65
2022-08-24T08:26:55.526Z,25.69
2022-08-24T08:29:45.645Z,25.79
2022-08-24T08:32:32.477Z,25.86
2022-08-24T08:35:27.134Z,25.89
2022-08-24T08:38:15.065Z,25.94
2022-08-24T08:41:14.315Z,26.03
2022-08-24T08:44:16.256Z,26.06
2022-08-24T08:47:23.369Z,26.12
2022-08-24T08:50:13.219Z,26.20
2022-08-24T08:53:09.244Z,26.30
2022-08-24T08:56:21.917Z,26.39
2022-08-24T08:59:29.115Z,26.52
2022-08-24T09:02:33.236Z,26.65
2022-08-24T09:05:29.365Z,26.75
2022-08-24T09:08:44.237Z,26.78
2022-08-24T09:11:50.172Z,26.83
2022-08-24T09:15:14.909Z,26.89
2022-08-24T09:18:03.113Z,26.99
2022-08-24T09:20:59.347Z,27.08
2022-08-24T09:23:55.501Z,27.13
2022-08-24T09:26:51.349Z,27.18
2022-08-24T09:30:03.298Z,27.26
2022-08-24T09:32:59.524Z,27.35
2022-08-24T09:35:54.362Z,27.42
2022-08-24T09:39:01.357Z,27.47
2022-08-24T09:41:52.413Z,27.49
2022-08-24T09:44:58.520Z,27.53
2022-08-24T09:48:09.978Z,27.54
2022-08-24T09:51:24.155Z,27.61
2022-08-24T09:54:35.087Z,27.71
2022-08-24T09:57:59.876Z,27.75
2022-08-24T10:05:18.551Z,27.90
2022-08-24T10:08:32.218Z,27.94
2022-08-24T10:11:36.032Z,27.99
2022-08-24T10:14:24.355Z,28.00
2022-08-24T10:17:29.074Z,28.03
2022-08-24T10:20:23.916Z,27.98
2022-08-24T10:23:10.287Z,28.03
2022-08-24T10:26:10.116Z,28.14
2022-08-24T10:29:07.781Z,28.27
2022-08-24T10:32:04.539Z,28.38
2022-08-24T10:35:01.426Z,28.50
2022-08-24T10:38:18.305Z,28.63
2022-08-24T10:41:29.299Z,28.67
2022-08-24T10:44:09.246Z,28.63
2022-08-24T10:46:54.442Z,28.57
2022-08-24T10:49:39.802Z,28.51
2022-08-24T10:52:31.031Z,28.45
2022-08-24T10:55:15.268Z,28.47
2022-08-24T10:58:15.260Z,28.44
2022-08-24T11:00:49.622Z,28.39
2022-08-24T11:03:28.590Z,28.39
2022-08-24T11:06:02.104Z,28.39
2022-08-24T11:08:35.213Z,28.39
2022-08-24T11:11:24.015Z,28.37
2022-08-24T11:14:11.091Z,28.40
2022-08-24T11:17:07.303Z,28.46
2022-08-24T11:19:55.369Z,28.49
2022-08-24T11:22:55.184Z,28.49
2022-08-24T11:25:48.184Z,28.47
2022-08-24T11:29:12.181Z,28.52
2022-08-24T11:32:08.298Z,28.45
2022-08-24T11:35:11.359Z,28.49
2022-08-24T11:38:08.344Z,28.61
2022-08-24T11:41:04.105Z,28.55
2022-08-24T11:44:17.884Z,28.49
2022-08-24T11:48:12.258Z,28.47
2022-08-24T11:51:11.237Z,28.48
2022-08-24T11:54:08.434Z,28.51
2022-08-24T11:57:12.248Z,28.52
2022-08-24T12:00:13.860Z,28.55
2022-08-24T12:03:01.265Z,28.61
2022-08-24T12:05:50.457Z,28.67
2022-08-24T12:08:52.537Z,28.71
2022-08-24T12:11:55.499Z,28.68
2022-08-24T12:15:00.898Z,28.63
2022-08-24T12:17:58.767Z,28.62
2022-08-24T12:20:55.036Z,28.63
2022-08-24T12:24:10.897Z,28.64
2022-08-24T12:27:08.504Z,28.60
2022-08-24T12:30:23.453Z,28.57
2022-08-24T12:33:18.147Z,28.53
2022-08-24T12:36:15.424Z,28.48
2022-08-24T12:39:15.236Z,28.38
2022-08-24T12:42:13.530Z,28.30
2022-08-24T12:45:13.481Z,28.25
2022-08-24T12:48:10.134Z,28.21
2022-08-24T12:51:12.273Z,28.20
2022-08-24T12:54:14.188Z,28.18
2022-08-24T12:57:35.099Z,28.16
2022-08-24T13:04:17.566Z,28.09
2022-08-24T13:07:05.258Z,28.07
2022-08-24T13:10:04.259Z,28.05
2022-08-24T13:13:39.486Z,28.02
2022-08-24T13:16:48.046Z,28.04
2022-08-24T13:19:39.216Z,28.08
2022-08-24T13:22:40.236Z,28.10
2022-08-24T13:25:40.296Z,28.14
2022-08-24T13:28:39.177Z,28.18
2022-08-24T13:31:43.035Z,28.20
2022-08-24T13:34:17.274Z,28.23
2022-08-24T13:37:07.727Z,28.25
2022-08-24T13:39:54.683Z,28.25
2022-08-24T13:42:48.403Z,28.23
2022-08-24T13:45:40.414Z,28.20
2022-08-24T13:49:05.758Z,28.20
2022-08-24T13:51:45.115Z,28.17
2022-08-24T13:54:44.310Z,28.14
2022-08-24T13:57:40.490Z,28.08
2022-08-24T14:00:36.236Z,28.05
2022-08-24T14:03:38.711Z,28.03
2022-08-24T14:06:25.094Z,28.02
2022-08-24T14:09:36.366Z,27.99
2022-08-24T14:12:46.828Z,28.01
2022-08-24T14:15:32.569Z,28.03
2022-08-24T14:18:11.147Z,27.99
2022-08-24T14:21:17.917Z,27.96
2022-08-24T14:24:11.155Z,27.97
2022-08-24T14:27:10.165Z,27.99
2022-08-24T14:30:06.313Z,28.00
2022-08-24T14:32:55.051Z,28.03
2022-08-24T14:36:28.275Z,28.05
2022-08-24T14:39:13.052Z,28.07
2022-08-24T14:42:16.433Z,28.06
2022-08-24T14:45:10.687Z,28.05
2022-08-24T14:47:48.266Z,28.03
2022-08-24T14:50:47.945Z,28.00
2022-08-24T14:53:45.790Z,27.99
2022-08-24T14:57:00.178Z,27.97
2022-08-24T14:59:54.326Z,27.97
2022-08-24T15:03:18.634Z,27.96
2022-08-24T15:06:26.394Z,27.97
2022-08-24T15:09:25.315Z,28.00
2022-08-24T15:12:14.150Z,27.97
2022-08-24T15:15:03.889Z,27.99
2022-08-24T15:18:00.212Z,27.97
2022-08-24T15:20:59.301Z,27.96
2022-08-24T15:24:00.191Z,27.95
2022-08-24T15:26:56.311Z,27.95
2022-08-24T15:29:49.047Z,27.95
2022-08-24T15:33:01.201Z,27.91
2022-08-24T15:35:52.303Z,27.87
2022-08-24T15:38:49.105Z,27.83
2022-08-24T15:41:48.264Z,27.80
2022-08-24T15:44:44.225Z,27.76
2022-08-24T15:47:40.962Z,27.73
2022-08-24T15:50:38.244Z,27.69
2022-08-24T15:53:35.297Z,27.65
2022-08-24T15:56:36.042Z,27.63
2022-08-24T15:59:34.106Z,27.60
2022-08-24T16:02:29.349Z,27.59
2022-08-24T16:05:21.337Z,27.57
2022-08-24T16:08:20.958Z,27.54
2022-08-24T16:11:17.931Z,27.54
2022-08-24T16:14:14.018Z,27.51
2022-08-24T16:17:10.208Z,27.54
2022-08-24T16:20:06.160Z,27.55
2022-08-24T16:23:03.638Z,27.55
2022-08-24T16:26:00.132Z,27.56
2022-08-24T16:28:56.116Z,27.56
2022-08-24T16:31:54.597Z,27.56
2022-08-24T16:34:51.047Z,27.57
2022-08-24T16:37:49.041Z,27.56
2022-08-24T16:40:45.014Z,27.53
2022-08-24T16:43:47.204Z,27.53
2022-08-24T16:50:09.048Z,27.47
2022-08-24T16:53:05.813Z,27.43
2022-08-24T16:56:04.784Z,27.44
2022-08-24T16:59:00.878Z,27.41
2022-08-24T17:01:56.960Z,27.40
2022-08-24T17:04:53.817Z,27.41
2022-08-24T17:07:53.214Z,27.39
2022-08-24T17:10:50.255Z,27.36
2022-08-24T17:13:49.904Z,27.36
2022-08-24T17:16:47.097Z,27.31
2022-08-24T17:19:43.401Z,27.28
2022-08-24T17:22:39.905Z,27.23
2022-08-24T17:25:37.204Z,27.21
2022-08-24T17:28:34.753Z,27.22
2022-08-24T17:31:32.173Z,27.21
2022-08-24T17:34:28.605Z,27.21
2022-08-24T17:37:25.132Z,27.19
2022-08-24T17:40:22.787Z,27.15
2022-08-24T17:43:19.270Z,27.10
2022-08-24T17:46:15.974Z,27.04
2022-08-24T17:49:12.894Z,26.98
2022-08-24T17:52:30.024Z,26.92
2022-08-24T17:55:26.053Z,26.88
2022-08-24T17:58:22.015Z,26.84
2022-08-24T18:01:35.490Z,26.82
2022-08-24T18:04:38.124Z,26.79
2022-08-24T18:07:53.003Z,26.75
2022-08-24T18:10:53.247Z,26.71
2022-08-24T18:13:49.940Z,26.64
2022-08-24T18:16:53.944Z,26.56
2022-08-24T18:20:15.298Z,26.49
2022-08-24T18:23:21.152Z,26.45
2022-08-24T18:26:17.907Z,26.41
2022-08-24T18:29:21.003Z,26.43
2022-08-24T18:35:40.285Z,26.45
2022-08-24T18:48:11.287Z,26.42
2022-08-24T18:51:14.516Z,26.40
2022-08-24T18:53:48.235Z,26.37
2022-08-24T18:56:22.640Z,26.38
2022-08-24T18:59:01.022Z,26.36
2022-08-24T19:02:12.270Z,26.36
2022-08-24T19:06:22.547Z,26.35
2022-08-24T19:08:53.417Z,26.33
2022-08-24T19:11:28.832Z,26.32
2022-08-24T19:14:02.695Z,26.30
2022-08-24T19:16:34.705Z,26.27
2022-08-24T19:19:07.167Z,26.26
2022-08-24T19:21:56.554Z,26.24
2022-08-24T19:24:33.625Z,26.22
2022-08-24T19:27:04.798Z,26.21
2022-08-24T19:29:55.174Z,26.20
2022-08-24T19:36:26.592Z,26.14
2022-08-24T19:38:58.632Z,26.11
2022-08-24T19:41:36.437Z,26.07
2022-08-24T19:44:27.455Z,26.05
2022-08-24T19:47:30.434Z,26.06
2022-08-24T19:54:35.460Z,26.02
2022-08-24T19:57:23.676Z,25.99
2022-08-24T19:59:55.456Z,25.96
2022-08-24T20:02:28.874Z,25.92
2022-08-24T20:05:02.752Z,25.90
2022-08-24T20:11:26.036Z,25.90
2022-08-24T20:13:57.255Z,25.89
2022-08-24T20:16:34.815Z,25.89
2022-08-24T20:19:09.197Z,25.88
2022-08-24T20:22:13.510Z,25.86
2022-08-24T20:34:55.752Z,25.73
2022-08-24T20:41:26.478Z,25.69
2022-08-24T20:43:58.846Z,25.68
2022-08-24T20:46:30.818Z,25.66
2022-08-24T20:49:02.086Z,25.64
2022-08-24T20:51:39.495Z,25.62
2022-08-24T20:54:11.202Z,25.60
2022-08-24T20:56:49.796Z,25.57
2022-08-24T20:59:24.494Z,25.56
2022-08-24T21:02:28.177Z,25.55
2022-08-24T21:05:18.817Z,25.55
2022-08-24T21:07:51.091Z,25.54
2022-08-24T21:10:35.365Z,25.52
2022-08-24T21:13:26.787Z,25.50
2022-08-24T21:15:58.459Z,25.45
2022-08-24T21:18:29.612Z,25.41
2022-08-24T21:21:04.447Z,25.37
2022-08-24T21:24:05.155Z,25.37
2022-08-24T21:29:34.129Z,25.33
2022-08-24T21:32:21.838Z,25.32
2022-08-24T21:34:52.761Z,25.31
2022-08-24T21:37:23.766Z,25.30
2022-08-24T21:39:55.385Z,25.27
2022-08-24T21:42:27.437Z,25.25
2022-08-24T21:44:58.090Z,25.24
2022-08-24T21:47:53.934Z,25.25
2022-08-24T21:50:26.687Z,25.24
2022-08-24T21:52:58.103Z,25.23
2022-08-24T21:55:30.095Z,25.23
2022-08-24T21:58:47.226Z,25.17
2022-08-24T22:01:18.227Z,25.01
2022-08-24T22:03:48.929Z,24.89
2022-08-24T22:06:21.015Z,24.84
2022-08-24T22:08:55.285Z,24.79
2022-08-24T22:11:26.322Z,24.71
2022-08-24T22:13:58.375Z,24.67
2022-08-24T22:16:37.604Z,24.65
2022-08-24T22:19:09.586Z,24.62
2022-08-24T22:21:47.546Z,24.59
2022-08-24T22:24:19.998Z,24.57
2022-08-24T22:26:54.878Z,24.57
2022-08-24T22:29:28.424Z,24.58
2022-08-24T22:31:59.422Z,24.57
2022-08-24T22:34:31.695Z,24.54
2022-08-24T22:37:27.432Z,24.39
2022-08-24T22:40:19.086Z,24.19
2022-08-24T22:42:51.652Z,24.04
2022-08-24T22:45:23.065Z,23.97
2022-08-24T22:47:54.312Z,23.91
2022-08-24T22:50:27.279Z,23.89
2022-08-24T22:53:07.824Z,23.88
2022-08-24T22:56:17.877Z,23.87
2022-08-24T22:58:50.119Z,23.84
2022-08-24T23:01:33.438Z,23.81
2022-08-24T23:04:38.435Z,23.75
2022-08-24T23:07:18.781Z,23.67
2022-08-24T23:10:15.393Z,23.58
2022-08-24T23:12:48.368Z,23.53
2022-08-24T23:15:27.832Z,23.49
2022-08-24T23:19:01.912Z,23.51
2022-08-24T23:21:35.651Z,23.54
2022-08-24T23:24:12.366Z,23.55
2022-08-24T23:26:51.946Z,23.58
2022-08-24T23:29:27.315Z,23.62
2022-08-24T23:31:58.805Z,23.63
2022-08-24T23:34:30.132Z,23.63
2022-08-24T23:37:01.607Z,23.62
2022-08-24T23:39:54.135Z,23.60
2022-08-24T23:42:25.115Z,23.56
2022-08-24T23:44:56.469Z,23.54
2022-08-24T23:47:28.209Z,23.55
2022-08-24T23:50:46.721Z,23.55
2022-08-24T23:53:17.822Z,23.58
2022-08-24T23:55:50.089Z,23.58
2022-08-24T23:58:21.730Z,23.57
